Time,TemperatureF,DewpointF,PressureIn,WindDirection,WindDirectionDegrees,WindSpeedMPH,WindSpeedGustMPH,Humidity,HourlyPrecipIn,Conditions,Clouds,dailyrainin,SoftwareType,DateUTC
2013-01-16 00:06:00,73.4,64.0,30.05,ESE,104,0.0,7.0,73,0.00,,,0.00,weatherlink.com 1.10,2013-01-16 05:06:00,
2013-01-16 00:21:00,73.4,65.0,30.05,ESE,104,0.0,3.0,74,0.00,,,0.00,weatherlink.com 1.10,2013-01-16 05:21:00,
2013-01-16 00:36:00,73.2,65.0,30.05,ESE,118,0.0,7.0,75,0.00,,,0.00,weatherlink.com 1.10,2013-01-16 05:36:00,
2013-01-16 00:51:00,73.1,64.0,30.05,ESE,110,0.0,8.0,74,0.00,,,0.00,weatherlink.com 1.10,2013-01-16 05:51:00,
2013-01-16 01:06:00,72.7,63.0,30.05,ESE,113,0.0,7.0,71,0.00,,,0.00,weatherlink.com 1.10,2013-01-16 06:06:00,
2013-01-16 01:21:00,72.9,63.0,30.05,ESE,114,0.0,5.0,70,0.00,,,0.00,weatherlink.com 1.10,2013-01-16 06:21:00,
2013-01-16 01:36:00,72.7,62.0,30.05,ESE,114,0.0,0.0,69,0.00,,,0.00,weatherlink.com 1.10,2013-01-16 06:36:00,
2013-01-16 01:52:00,72.4,62.0,30.05,ESE,114,0.0,5.0,69,0.00,,,0.00,weatherlink.com 1.10,2013-01-16 06:52:00,
2013-01-16 02:07:00,72.6,63.0,30.05,ESE,114,0.0,1.0,72,0.00,,,0.00,weatherlink.com 1.10,2013-01-16 07:07:00,
2013-01-16 02:22:00,72.4,64.0,30.05,ESE,114,0.0,0.0,74,0.00,,,0.00,weatherlink.com 1.10,2013-01-16 07:22:00,
2013-01-16 02:37:00,71.9,64.0,30.05,ESE,114,0.0,0.0,75,0.00,,,0.00,weatherlink.com 1.10,2013-01-16 07:37:00,
2013-01-16 02:52:00,70.8,63.0,30.05,ESE,114,0.0,0.0,76,0.00,,,0.00,weatherlink.com 1.10,2013-01-16 07:52:00,
2013-01-16 03:07:00,69.8,63.0,30.05,ESE,114,0.0,0.0,78,0.00,,,0.00,weatherlink.com 1.10,2013-01-16 08:07:00,
2013-01-16 03:22:00,69.5,63.0,30.05,ESE,114,0.0,0.0,79,0.00,,,0.00,weatherlink.com 1.10,2013-01-16 08:22:00,
2013-01-16 03:37:00,69.3,63.0,30.05,ESE,114,0.0,0.0,81,0.00,,,0.00,weatherlink.com 1.10,2013-01-16 08:37:00,
2013-01-16 03:52:00,69.0,63.0,30.05,ESE,114,0.0,0.0,82,0.00,,,0.00,weatherlink.com 1.10,2013-01-16 08:52:00,
2013-01-16 04:07:00,69.0,63.0,30.05,ESE,114,0.0,0.0,82,0.00,,,0.00,weatherlink.com 1.10,2013-01-16 09:07:00,
2013-01-16 04:22:00,68.8,63.0,30.04,ESE,114,0.0,0.0,82,0.00,,,0.00,weatherlink.com 1.10,2013-01-16 09:22:00,
2013-01-16 04:37:00,68.5,64.0,30.05,ESE,114,0.0,0.0,84,0.00,,,0.00,weatherlink.com 1.10,2013-01-16 09:37:00,
2013-01-16 04:52:00,68.5,64.0,30.05,ESE,114,0.0,0.0,84,0.00,,,0.00,weatherlink.com 1.10,2013-01-16 09:52:00,
2013-01-16 05:07:00,68.7,64.0,30.05,ESE,114,0.0,0.0,85,0.00,,,0.00,weatherlink.com 1.10,2013-01-16 10:07:00,
2013-01-16 05:22:00,68.8,64.0,30.05,ESE,114,0.0,0.0,85,0.00,,,0.00,weatherlink.com 1.10,2013-01-16 10:22:00,
2013-01-16 05:37:00,68.7,64.0,30.05,ESE,114,0.0,0.0,85,0.00,,,0.00,weatherlink.com 1.10,2013-01-16 10:37:00,
2013-01-16 05:52:00,68.7,64.0,30.05,ESE,114,0.0,0.0,85,0.00,,,0.00,weatherlink.com 1.10,2013-01-16 10:52:00,
2013-01-16 06:07:00,68.8,64.0,30.05,ESE,114,0.0,0.0,85,0.00,,,0.00,weatherlink.com 1.10,2013-01-16 11:07:00,
2013-01-16 06:22:00,69.2,65.0,30.06,ESE,114,0.0,0.0,85,0.00,,,0.00,weatherlink.com 1.10,2013-01-16 11:22:00,
2013-01-16 06:37:00,69.5,65.0,30.07,ESE,114,0.0,1.0,85,0.00,,,0.00,weatherlink.com 1.10,2013-01-16 11:37:00,
2013-01-16 06:52:00,69.7,65.0,30.07,ESE,114,0.0,0.0,85,0.00,,,0.00,weatherlink.com 1.10,2013-01-16 11:52:00,
2013-01-16 07:07:00,70.0,65.0,30.07,ESE,114,0.0,1.0,84,0.00,,,0.00,weatherlink.com 1.10,2013-01-16 12:07:00,
2013-01-16 07:22:00,70.5,65.0,30.08,ESE,114,0.0,0.0,83,0.00,,,0.00,weatherlink.com 1.10,2013-01-16 12:22:00,
2013-01-16 07:39:00,71.5,66.0,30.08,ESE,114,0.0,0.0,82,0.00,,,0.00,weatherlink.com 1.10,2013-01-16 12:39:00,
2013-01-16 07:52:00,72.6,67.0,30.08,ESE,114,2.0,7.0,81,0.00,,,0.00,weatherlink.com 1.10,2013-01-16 12:52:00,
2013-01-16 08:07:00,74.5,67.0,30.09,ESE,119,7.0,9.0,76,0.00,,,0.00,weatherlink.com 1.10,2013-01-16 13:07:00,
2013-01-16 08:22:00,75.3,66.0,30.09,SSE,159,7.0,10.0,72,0.00,,,0.00,weatherlink.com 1.10,2013-01-16 13:22:00,
2013-01-16 08:37:00,76.0,66.0,30.09,SSE,150,7.0,14.0,72,0.00,,,0.00,weatherlink.com 1.10,2013-01-16 13:37:00,
2013-01-16 08:52:00,76.2,67.0,30.10,ESE,113,8.0,17.0,72,0.00,,,0.00,weatherlink.com 1.10,2013-01-16 13:52:00,
2013-01-16 09:07:00,76.9,66.0,30.10,ESE,112,0.0,8.0,70,0.00,,,0.00,weatherlink.com 1.10,2013-01-16 14:07:00,
2013-01-16 09:22:00,77.5,67.0,30.10,SE,145,5.0,12.0,69,0.00,,,0.00,weatherlink.com 1.10,2013-01-16 14:22:00,
2013-01-16 09:37:00,77.6,67.0,30.10,ESE,107,7.0,13.0,69,0.00,,,0.00,weatherlink.com 1.10,2013-01-16 14:37:00,
2013-01-16 09:52:00,78.0,67.0,30.11,SSE,162,5.0,11.0,69,0.00,,,0.00,weatherlink.com 1.10,2013-01-16 14:52:00,
2013-01-16 10:07:00,78.5,67.0,30.11,South,170,3.0,10.0,67,0.00,,,0.00,weatherlink.com 1.10,2013-01-16 15:07:00,
2013-01-16 10:22:00,78.0,67.0,30.11,SSE,155,1.0,11.0,68,0.00,,,0.00,weatherlink.com 1.10,2013-01-16 15:22:00,
2013-01-16 10:37:00,78.7,67.0,30.10,SE,136,10.0,15.0,67,0.00,,,0.00,weatherlink.com 1.10,2013-01-16 15:37:00,
2013-01-16 10:52:00,78.2,67.0,30.10,SSE,157,6.0,14.0,69,0.00,,,0.00,weatherlink.com 1.10,2013-01-16 15:52:00,
2013-01-16 11:07:00,77.8,67.0,30.09,SSE,156,3.0,15.0,69,0.00,,,0.00,weatherlink.com 1.10,2013-01-16 16:07:00,
2013-01-16 11:22:00,78.4,67.0,30.09,ESE,116,8.0,15.0,69,0.00,,,0.00,weatherlink.com 1.10,2013-01-16 16:22:00,
2013-01-16 11:37:00,78.5,68.0,30.08,SSE,151,3.0,14.0,70,0.00,,,0.00,weatherlink.com 1.10,2013-01-16 16:37:00,
2013-01-16 11:52:00,78.7,68.0,30.07,South,181,4.0,13.0,69,0.00,,,0.00,weatherlink.com 1.10,2013-01-16 16:52:00,
2013-01-16 12:07:00,77.8,68.0,30.07,SSE,162,0.0,14.0,72,0.00,,,0.00,weatherlink.com 1.10,2013-01-16 17:07:00,
2013-01-16 12:22:00,77.8,68.0,30.06,ESE,113,2.0,11.0,71,0.00,,,0.00,weatherlink.com 1.10,2013-01-16 17:22:00,
2013-01-16 12:37:00,78.0,68.0,30.05,ESE,110,12.0,12.0,72,0.00,,,0.00,weatherlink.com 1.10,2013-01-16 17:37:00,
2013-01-16 12:52:00,78.4,69.0,30.05,ESE,118,8.0,12.0,72,0.00,,,0.00,weatherlink.com 1.10,2013-01-16 17:52:00,
2013-01-16 13:07:00,78.7,69.0,30.04,SE,146,4.0,13.0,71,0.00,,,0.00,weatherlink.com 1.10,2013-01-16 18:07:00,
2013-01-16 13:22:00,78.2,69.0,30.04,ESE,117,8.0,15.0,73,0.00,,,0.00,weatherlink.com 1.10,2013-01-16 18:22:00,
2013-01-16 13:37:00,77.6,68.0,30.03,East,95,3.0,16.0,73,0.00,,,0.00,weatherlink.com 1.10,2013-01-16 18:37:00,
2013-01-16 14:07:00,77.5,68.0,30.02,South,170,0.0,13.0,73,0.00,,,0.00,weatherlink.com 1.10,2013-01-16 19:07:00,
2013-01-16 14:22:00,77.8,69.0,30.02,ESE,122,8.0,14.0,73,0.00,,,0.00,weatherlink.com 1.10,2013-01-16 19:22:00,
2013-01-16 14:37:00,77.6,68.0,30.02,SE,143,0.0,19.0,72,0.00,,,0.00,weatherlink.com 1.10,2013-01-16 19:37:00,
2013-01-16 14:52:00,77.8,68.0,30.02,ESE,114,7.0,15.0,72,0.00,,,0.00,weatherlink.com 1.10,2013-01-16 19:52:00,
2013-01-16 15:09:00,77.6,68.0,30.02,SE,137,3.0,14.0,73,0.00,,,0.00,weatherlink.com 1.10,2013-01-16 20:09:00,
2013-01-16 15:22:00,77.8,69.0,30.02,SE,140,10.0,14.0,74,0.00,,,0.00,weatherlink.com 1.10,2013-01-16 20:22:00,
2013-01-16 15:38:00,77.8,68.0,30.02,South,174,0.0,13.0,72,0.00,,,0.00,weatherlink.com 1.10,2013-01-16 20:38:00,
2013-01-16 15:52:00,77.5,69.0,30.03,SSE,163,9.0,12.0,74,0.00,,,0.00,weatherlink.com 1.10,2013-01-16 20:52:00,
2013-01-16 16:07:00,76.9,68.0,30.03,SSE,159,0.0,12.0,74,0.00,,,0.00,weatherlink.com 1.10,2013-01-16 21:07:00,
2013-01-16 16:22:00,76.9,68.0,30.03,SE,134,5.0,17.0,73,0.00,,,0.00,weatherlink.com 1.10,2013-01-16 21:22:00,
2013-01-16 16:37:00,77.1,68.0,30.04,SSE,154,0.0,14.0,73,0.00,,,0.00,weatherlink.com 1.10,2013-01-16 21:37:00,
2013-01-16 16:53:00,77.1,68.0,30.04,ESE,117,2.0,11.0,74,0.00,,,0.00,weatherlink.com 1.10,2013-01-16 21:53:00,
2013-01-16 17:07:00,76.9,68.0,30.04,SE,128,7.0,13.0,74,0.00,,,0.00,weatherlink.com 1.10,2013-01-16 22:07:00,
2013-01-16 17:23:00,76.6,68.0,30.04,SSE,154,0.0,9.0,75,0.00,,,0.00,weatherlink.com 1.10,2013-01-16 22:23:00,
2013-01-16 17:38:00,76.6,68.0,30.05,SSE,160,3.0,7.0,75,0.00,,,0.00,weatherlink.com 1.10,2013-01-16 22:38:00,
2013-01-16 17:53:00,76.0,68.0,30.05,South,171,0.0,8.0,76,0.00,,,0.00,weatherlink.com 1.10,2013-01-16 22:53:00,
2013-01-16 18:08:00,76.0,68.0,30.05,SE,134,0.0,8.0,76,0.00,,,0.00,weatherlink.com 1.10,2013-01-16 23:08:00,
2013-01-16 18:23:00,75.9,68.0,30.05,SSE,158,0.0,10.0,77,0.00,,,0.00,weatherlink.com 1.10,2013-01-16 23:23:00,
2013-01-16 18:38:00,75.7,68.0,30.05,SSE,162,0.0,4.0,77,0.00,,,0.00,weatherlink.com 1.10,2013-01-16 23:38:00,
2013-01-16 18:53:00,75.5,68.0,30.06,SSE,167,0.0,8.0,78,0.00,,,0.00,weatherlink.com 1.10,2013-01-16 23:53:00,
2013-01-16 19:08:00,75.3,68.0,30.06,SSE,167,0.0,4.0,78,0.00,,,0.00,weatherlink.com 1.10,2013-01-17 00:08:00,
2013-01-16 19:23:00,75.3,68.0,30.06,SSE,165,0.0,8.0,77,0.00,,,0.00,weatherlink.com 1.10,2013-01-17 00:23:00,
2013-01-16 19:38:00,75.3,68.0,30.06,SSE,161,0.0,1.0,77,0.00,,,0.00,weatherlink.com 1.10,2013-01-17 00:38:00,
2013-01-16 19:53:00,75.3,68.0,30.07,SSE,161,0.0,2.0,78,0.00,,,0.00,weatherlink.com 1.10,2013-01-17 00:53:00,
2013-01-16 20:08:00,75.0,69.0,30.07,SSE,158,0.0,5.0,82,0.03,,,0.03,weatherlink.com 1.10,2013-01-17 01:08:00,
2013-01-16 20:23:00,74.3,70.0,30.07,SSE,159,0.0,1.0,85,0.03,,,0.03,weatherlink.com 1.10,2013-01-17 01:23:00,
2013-01-16 20:38:00,73.9,70.0,30.07,SSE,156,0.0,1.0,86,0.03,,,0.03,weatherlink.com 1.10,2013-01-17 01:38:00,
2013-01-16 20:53:00,73.8,69.0,30.07,SSE,153,0.0,1.0,86,0.03,,,0.03,weatherlink.com 1.10,2013-01-17 01:53:00,
2013-01-16 21:08:00,73.9,69.0,30.07,ESE,119,0.0,7.0,85,0.00,,,0.03,weatherlink.com 1.10,2013-01-17 02:08:00,
2013-01-16 21:23:00,73.9,69.0,30.07,ESE,120,0.0,5.0,85,0.00,,,0.03,weatherlink.com 1.10,2013-01-17 02:23:00,
2013-01-16 21:38:00,74.3,69.0,30.07,SE,125,0.0,8.0,83,0.00,,,0.03,weatherlink.com 1.10,2013-01-17 02:38:00,
2013-01-16 21:53:00,74.6,69.0,30.07,SE,125,0.0,0.0,83,0.00,,,0.03,weatherlink.com 1.10,2013-01-17 02:53:00,
2013-01-16 22:08:00,74.8,69.0,30.07,SE,125,0.0,0.0,83,0.00,,,0.03,weatherlink.com 1.10,2013-01-17 03:08:00,
2013-01-16 22:23:00,74.5,69.0,30.06,East,93,0.0,12.0,84,0.15,,,0.18,weatherlink.com 1.10,2013-01-17 03:23:00,
2013-01-16 22:38:00,72.7,69.0,30.07,SSE,156,2.0,12.0,87,0.28,,,0.31,weatherlink.com 1.10,2013-01-17 03:38:00,
2013-01-16 22:53:00,71.7,68.0,30.06,SE,146,0.0,7.0,89,0.34,,,0.37,weatherlink.com 1.10,2013-01-17 03:53:00,
2013-01-16 23:08:00,71.5,69.0,30.05,SSE,160,0.0,0.0,90,0.34,,,0.37,weatherlink.com 1.10,2013-01-17 04:08:00,
2013-01-16 23:23:00,71.4,69.0,30.05,SE,142,0.0,3.0,91,0.18,,,0.37,weatherlink.com 1.10,2013-01-17 04:23:00,
2013-01-16 23:38:00,71.4,69.0,30.05,SE,130,0.0,6.0,91,0.05,,,0.37,weatherlink.com 1.10,2013-01-17 04:38:00,
2013-01-16 23:53:00,71.5,69.0,30.05,SE,130,0.0,0.0,91,0.00,,,0.37,weatherlink.com 1.10,2013-01-17 04:53:00,